sensor_id;sensor_type;location;lat;lon;timestamp;P1;durP1;ratioP1;P2;durP2;ratioP2
4646;SDS011;2336;47.822;7.564;2022-12-29T00:00:11;1.30;;;1.30;;
4646;SDS011;2336;47.822;7.564;2022-12-29T00:02:39;1.40;;;1.30;;
4646;SDS011;2336;47.822;7.564;2022-12-29T00:05:06;1.57;;;1.50;;
4646;SDS011;2336;47.822;7.564;2022-12-29T00:07:33;2.20;;;1.17;;
4646;SDS011;2336;47.822;7.564;2022-12-29T00:10:02;1.20;;;1.20;;
4646;SDS011;2336;47.822;7.564;2022-12-29T00:12:29;1.63;;;1.27;;
4646;SDS011;2336;47.822;7.564;2022-12-29T00:15:16;1.67;;;1.23;;
4646;SDS011;2336;47.822;7.564;2022-12-29T00:18:00;0.80;;;0.77;;
4646;SDS011;2336;47.822;7.564;2022-12-29T00:20:27;1.90;;;1.00;;
4646;SDS011;2336;47.822;7.564;2022-12-29T00:23:11;1.10;;;1.10;;
4646;SDS011;2336;47.822;7.564;2022-12-29T00:25:56;1.27;;;1.17;;
4646;SDS011;2336;47.822;7.564;2022-12-29T00:28:40;2.70;;;1.30;;
4646;SDS011;2336;47.822;7.564;2022-12-29T00:31:24;1.43;;;1.33;;
4646;SDS011;2336;47.822;7.564;2022-12-29T00:34:10;10.93;;;1.63;;
4646;SDS011;2336;47.822;7.564;2022-12-29T00:36:54;1.30;;;0.90;;
4646;SDS011;2336;47.822;7.564;2022-12-29T00:39:22;1.77;;;1.10;;
4646;SDS011;2336;47.822;7.564;2022-12-29T00:42:08;1.90;;;1.30;;
4646;SDS011;2336;47.822;7.564;2022-12-29T00:44:53;1.73;;;1.20;;
4646;SDS011;2336;47.822;7.564;2022-12-29T00:47:20;2.83;;;1.17;;
4646;SDS011;2336;47.822;7.564;2022-12-29T00:49:46;0.83;;;0.83;;
4646;SDS011;2336;47.822;7.564;2022-12-29T00:52:13;4.07;;;1.10;;
4646;SDS011;2336;47.822;7.564;2022-12-29T00:54:40;1.37;;;1.27;;
4646;SDS011;2336;47.822;7.564;2022-12-29T00:57:11;1.23;;;0.80;;
4646;SDS011;2336;47.822;7.564;2022-12-29T00:59:39;1.17;;;1.10;;
4646;SDS011;2336;47.822;7.564;2022-12-29T01:02:07;1.70;;;1.60;;
4646;SDS011;2336;47.822;7.564;2022-12-29T01:04:34;1.80;;;1.70;;
4646;SDS011;2336;47.822;7.564;2022-12-29T01:07:01;4.27;;;2.20;;
4646;SDS011;2336;47.822;7.564;2022-12-29T01:09:28;5.63;;;1.80;;
4646;SDS011;2336;47.822;7.564;2022-12-29T01:12:14;1.83;;;1.73;;
4646;SDS011;2336;47.822;7.564;2022-12-29T01:14:41;3.53;;;2.00;;
4646;SDS011;2336;47.822;7.564;2022-12-29T01:17:07;1.90;;;1.70;;
4646;SDS011;2336;47.822;7.564;2022-12-29T01:19:34;1.47;;;1.33;;
4646;SDS011;2336;47.822;7.564;2022-12-29T01:22:01;1.43;;;1.33;;
4646;SDS011;2336;47.822;7.564;2022-12-29T01:24:28;1.43;;;1.33;;
4646;SDS011;2336;47.822;7.564;2022-12-29T01:26:54;2.03;;;1.43;;
4646;SDS011;2336;47.822;7.564;2022-12-29T01:29:23;3.57;;;1.77;;
4646;SDS011;2336;47.822;7.564;2022-12-29T01:31:49;1.90;;;1.30;;
4646;SDS011;2336;47.822;7.564;2022-12-29T01:34:16;2.60;;;1.70;;
4646;SDS011;2336;47.822;7.564;2022-12-29T01:36:43;1.03;;;1.03;;
4646;SDS011;2336;47.822;7.564;2022-12-29T01:39:10;2.03;;;1.53;;
4646;SDS011;2336;47.822;7.564;2022-12-29T01:41:37;1.67;;;1.57;;
4646;SDS011;2336;47.822;7.564;2022-12-29T01:47:05;1.10;;;1.10;;
4646;SDS011;2336;47.822;7.564;2022-12-29T01:49:34;1.40;;;1.30;;
4646;SDS011;2336;47.822;7.564;2022-12-29T01:52:01;3.33;;;1.37;;
4646;SDS011;2336;47.822;7.564;2022-12-29T01:54:32;1.80;;;1.70;;
4646;SDS011;2336;47.822;7.564;2022-12-29T01:57:03;1.57;;;1.17;;
4646;SDS011;2336;47.822;7.564;2022-12-29T01:59:34;3.37;;;1.30;;
4646;SDS011;2336;47.822;7.564;2022-12-29T02:02:05;1.17;;;1.17;;
4646;SDS011;2336;47.822;7.564;2022-12-29T02:04:33;1.90;;;1.40;;
4646;SDS011;2336;47.822;7.564;2022-12-29T02:07:06;2.20;;;1.07;;
4646;SDS011;2336;47.822;7.564;2022-12-29T02:09:37;1.87;;;1.20;;
4646;SDS011;2336;47.822;7.564;2022-12-29T02:12:04;2.13;;;1.70;;
4646;SDS011;2336;47.822;7.564;2022-12-29T02:14:31;1.20;;;1.10;;
4646;SDS011;2336;47.822;7.564;2022-12-29T02:17:00;1.07;;;1.07;;
4646;SDS011;2336;47.822;7.564;2022-12-29T02:19:45;2.00;;;1.30;;
4646;SDS011;2336;47.822;7.564;2022-12-29T02:22:36;1.10;;;1.10;;
4646;SDS011;2336;47.822;7.564;2022-12-29T02:25:17;1.90;;;1.70;;
4646;SDS011;2336;47.822;7.564;2022-12-29T02:28:14;1.30;;;1.30;;
4646;SDS011;2336;47.822;7.564;2022-12-29T02:31:25;1.53;;;1.20;;
4646;SDS011;2336;47.822;7.564;2022-12-29T02:34:00;1.40;;;1.30;;
4646;SDS011;2336;47.822;7.564;2022-12-29T02:36:37;1.43;;;1.33;;
4646;SDS011;2336;47.822;7.564;2022-12-29T02:39:12;1.30;;;1.30;;
4646;SDS011;2336;47.822;7.564;2022-12-29T02:41:56;1.10;;;1.10;;
4646;SDS011;2336;47.822;7.564;2022-12-29T02:44:31;1.93;;;1.37;;
4646;SDS011;2336;47.822;7.564;2022-12-29T02:47:10;1.40;;;1.40;;
4646;SDS011;2336;47.822;7.564;2022-12-29T02:49:43;4.77;;;1.40;;
4646;SDS011;2336;47.822;7.564;2022-12-29T02:52:15;1.20;;;1.20;;
4646;SDS011;2336;47.822;7.564;2022-12-29T02:54:44;2.83;;;1.37;;
4646;SDS011;2336;47.822;7.564;2022-12-29T02:57:10;2.40;;;1.23;;
4646;SDS011;2336;47.822;7.564;2022-12-29T02:59:40;1.47;;;1.37;;
4646;SDS011;2336;47.822;7.564;2022-12-29T03:02:14;1.40;;;1.30;;
4646;SDS011;2336;47.822;7.564;2022-12-29T03:05:01;2.50;;;1.30;;
4646;SDS011;2336;47.822;7.564;2022-12-29T03:07:38;2.20;;;1.50;;
4646;SDS011;2336;47.822;7.564;2022-12-29T03:10:15;1.40;;;1.30;;
4646;SDS011;2336;47.822;7.564;2022-12-29T03:12:53;2.30;;;1.30;;
4646;SDS011;2336;47.822;7.564;2022-12-29T03:15:46;1.23;;;1.23;;
4646;SDS011;2336;47.822;7.564;2022-12-29T03:18:29;1.40;;;1.30;;
4646;SDS011;2336;47.822;7.564;2022-12-29T03:21:06;1.10;;;1.00;;
4646;SDS011;2336;47.822;7.564;2022-12-29T03:23:37;1.53;;;1.37;;
4646;SDS011;2336;47.822;7.564;2022-12-29T03:26:08;1.53;;;1.50;;
4646;SDS011;2336;47.822;7.564;2022-12-29T03:28:38;1.40;;;1.30;;
4646;SDS011;2336;47.822;7.564;2022-12-29T03:31:09;1.60;;;1.50;;
4646;SDS011;2336;47.822;7.564;2022-12-29T03:33:38;1.50;;;1.40;;
4646;SDS011;2336;47.822;7.564;2022-12-29T03:36:10;1.90;;;1.60;;
4646;SDS011;2336;47.822;7.564;2022-12-29T03:38:43;5.03;;;1.50;;
4646;SDS011;2336;47.822;7.564;2022-12-29T03:41:14;1.60;;;1.50;;
4646;SDS011;2336;47.822;7.564;2022-12-29T03:43:43;2.10;;;1.87;;
4646;SDS011;2336;47.822;7.564;2022-12-29T03:46:09;1.90;;;1.80;;
4646;SDS011;2336;47.822;7.564;2022-12-29T03:48:36;2.20;;;1.83;;
4646;SDS011;2336;47.822;7.564;2022-12-29T03:51:04;3.87;;;2.23;;
4646;SDS011;2336;47.822;7.564;2022-12-29T03:53:31;1.80;;;1.70;;
4646;SDS011;2336;47.822;7.564;2022-12-29T03:55:58;2.87;;;1.80;;
4646;SDS011;2336;47.822;7.564;2022-12-29T03:58:25;2.20;;;1.87;;
4646;SDS011;2336;47.822;7.564;2022-12-29T04:00:51;4.60;;;1.97;;
4646;SDS011;2336;47.822;7.564;2022-12-29T04:03:18;2.97;;;1.90;;
4646;SDS011;2336;47.822;7.564;2022-12-29T04:05:46;1.93;;;1.83;;
4646;SDS011;2336;47.822;7.564;2022-12-29T04:08:13;1.87;;;1.50;;
4646;SDS011;2336;47.822;7.564;2022-12-29T04:10:40;2.83;;;2.10;;
4646;SDS011;2336;47.822;7.564;2022-12-29T04:13:06;2.13;;;1.90;;
4646;SDS011;2336;47.822;7.564;2022-12-29T04:15:33;1.73;;;1.63;;
4646;SDS011;2336;47.822;7.564;2022-12-29T04:18:00;2.27;;;2.17;;
4646;SDS011;2336;47.822;7.564;2022-12-29T04:20:27;2.20;;;2.10;;
4646;SDS011;2336;47.822;7.564;2022-12-29T04:23:13;2.77;;;2.23;;
4646;SDS011;2336;47.822;7.564;2022-12-29T04:25:40;2.93;;;1.80;;
4646;SDS011;2336;47.822;7.564;2022-12-29T04:28:06;2.80;;;2.20;;
4646;SDS011;2336;47.822;7.564;2022-12-29T04:30:33;2.83;;;2.23;;
4646;SDS011;2336;47.822;7.564;2022-12-29T04:33:00;2.10;;;1.90;;
4646;SDS011;2336;47.822;7.564;2022-12-29T04:35:27;2.10;;;2.00;;
4646;SDS011;2336;47.822;7.564;2022-12-29T04:37:53;2.13;;;2.03;;
4646;SDS011;2336;47.822;7.564;2022-12-29T04:40:21;2.23;;;2.00;;
4646;SDS011;2336;47.822;7.564;2022-12-29T04:42:49;2.50;;;1.80;;
4646;SDS011;2336;47.822;7.564;2022-12-29T04:45:16;2.37;;;2.00;;
4646;SDS011;2336;47.822;7.564;2022-12-29T04:47:43;2.30;;;1.67;;
4646;SDS011;2336;47.822;7.564;2022-12-29T04:50:10;2.13;;;1.80;;
4646;SDS011;2336;47.822;7.564;2022-12-29T04:52:37;2.23;;;2.13;;
4646;SDS011;2336;47.822;7.564;2022-12-29T04:55:04;1.80;;;1.70;;
4646;SDS011;2336;47.822;7.564;2022-12-29T04:57:33;2.00;;;1.90;;
4646;SDS011;2336;47.822;7.564;2022-12-29T05:00:00;2.50;;;1.60;;
4646;SDS011;2336;47.822;7.564;2022-12-29T05:02:26;1.90;;;1.80;;
4646;SDS011;2336;47.822;7.564;2022-12-29T05:04:53;2.00;;;2.00;;
4646;SDS011;2336;47.822;7.564;2022-12-29T05:07:20;2.80;;;2.60;;
4646;SDS011;2336;47.822;7.564;2022-12-29T05:09:47;3.07;;;2.90;;
4646;SDS011;2336;47.822;7.564;2022-12-29T05:12:13;2.57;;;2.43;;
4646;SDS011;2336;47.822;7.564;2022-12-29T05:14:42;7.03;;;3.30;;
4646;SDS011;2336;47.822;7.564;2022-12-29T05:17:08;3.27;;;2.83;;
4646;SDS011;2336;47.822;7.564;2022-12-29T05:19:35;2.20;;;2.10;;
4646;SDS011;2336;47.822;7.564;2022-12-29T05:22:03;3.63;;;1.53;;
4646;SDS011;2336;47.822;7.564;2022-12-29T05:24:30;4.53;;;1.80;;
4646;SDS011;2336;47.822;7.564;2022-12-29T05:26:56;1.70;;;1.60;;
4646;SDS011;2336;47.822;7.564;2022-12-29T05:29:23;1.60;;;1.50;;
4646;SDS011;2336;47.822;7.564;2022-12-29T05:31:51;1.40;;;1.40;;
4646;SDS011;2336;47.822;7.564;2022-12-29T05:34:18;1.60;;;1.50;;
4646;SDS011;2336;47.822;7.564;2022-12-29T05:36:45;1.60;;;1.60;;
4646;SDS011;2336;47.822;7.564;2022-12-29T05:39:12;2.40;;;1.47;;
4646;SDS011;2336;47.822;7.564;2022-12-29T05:41:38;1.50;;;1.40;;
4646;SDS011;2336;47.822;7.564;2022-12-29T05:44:05;1.50;;;1.40;;
4646;SDS011;2336;47.822;7.564;2022-12-29T05:46:32;2.50;;;1.70;;
4646;SDS011;2336;47.822;7.564;2022-12-29T05:49:00;1.60;;;1.50;;
4646;SDS011;2336;47.822;7.564;2022-12-29T05:51:27;1.60;;;1.50;;
4646;SDS011;2336;47.822;7.564;2022-12-29T05:53:54;1.80;;;1.70;;
4646;SDS011;2336;47.822;7.564;2022-12-29T05:56:21;1.37;;;1.23;;
4646;SDS011;2336;47.822;7.564;2022-12-29T05:58:47;1.57;;;1.47;;
4646;SDS011;2336;47.822;7.564;2022-12-29T06:01:14;1.20;;;1.20;;
4646;SDS011;2336;47.822;7.564;2022-12-29T06:03:41;3.33;;;1.87;;
4646;SDS011;2336;47.822;7.564;2022-12-29T06:06:09;3.13;;;1.77;;
4646;SDS011;2336;47.822;7.564;2022-12-29T06:08:36;4.10;;;1.60;;
4646;SDS011;2336;47.822;7.564;2022-12-29T06:11:03;1.60;;;1.50;;
4646;SDS011;2336;47.822;7.564;2022-12-29T06:13:30;2.07;;;1.97;;
4646;SDS011;2336;47.822;7.564;2022-12-29T06:15:57;2.57;;;2.37;;
4646;SDS011;2336;47.822;7.564;2022-12-29T06:18:24;2.27;;;2.07;;
4646;SDS011;2336;47.822;7.564;2022-12-29T06:20:51;2.00;;;1.90;;
4646;SDS011;2336;47.822;7.564;2022-12-29T06:23:19;2.27;;;2.07;;
4646;SDS011;2336;47.822;7.564;2022-12-29T06:25:46;2.03;;;1.93;;
4646;SDS011;2336;47.822;7.564;2022-12-29T06:28:14;2.13;;;2.03;;
4646;SDS011;2336;47.822;7.564;2022-12-29T06:30:42;2.03;;;1.93;;
4646;SDS011;2336;47.822;7.564;2022-12-29T06:33:10;2.10;;;2.00;;
4646;SDS011;2336;47.822;7.564;2022-12-29T06:35:37;2.10;;;2.00;;
4646;SDS011;2336;47.822;7.564;2022-12-29T06:38:03;9.43;;;2.07;;
4646;SDS011;2336;47.822;7.564;2022-12-29T06:40:32;6.80;;;6.30;;
4646;SDS011;2336;47.822;7.564;2022-12-29T06:42:58;4.77;;;4.37;;
4646;SDS011;2336;47.822;7.564;2022-12-29T06:45:25;8.00;;;7.20;;
4646;SDS011;2336;47.822;7.564;2022-12-29T06:47:52;5.57;;;5.00;;
4646;SDS011;2336;47.822;7.564;2022-12-29T06:50:19;5.90;;;5.40;;
4646;SDS011;2336;47.822;7.564;2022-12-29T06:52:45;4.93;;;4.33;;
4646;SDS011;2336;47.822;7.564;2022-12-29T06:55:12;3.33;;;2.87;;
4646;SDS011;2336;47.822;7.564;2022-12-29T06:57:40;2.47;;;2.27;;
4646;SDS011;2336;47.822;7.564;2022-12-29T07:00:08;5.63;;;1.73;;
4646;SDS011;2336;47.822;7.564;2022-12-29T07:02:35;2.90;;;1.80;;
4646;SDS011;2336;47.822;7.564;2022-12-29T07:05:02;2.40;;;1.90;;
4646;SDS011;2336;47.822;7.564;2022-12-29T07:07:29;2.00;;;1.90;;
4646;SDS011;2336;47.822;7.564;2022-12-29T07:09:56;3.07;;;1.70;;
4646;SDS011;2336;47.822;7.564;2022-12-29T07:12:22;4.03;;;1.80;;
4646;SDS011;2336;47.822;7.564;2022-12-29T07:14:50;1.63;;;1.63;;
4646;SDS011;2336;47.822;7.564;2022-12-29T07:17:17;2.20;;;1.27;;
4646;SDS011;2336;47.822;7.564;2022-12-29T07:19:44;2.30;;;1.23;;
4646;SDS011;2336;47.822;7.564;2022-12-29T07:22:11;2.20;;;1.70;;
4646;SDS011;2336;47.822;7.564;2022-12-29T07:24:38;4.30;;;1.33;;
4646;SDS011;2336;47.822;7.564;2022-12-29T07:27:05;1.40;;;1.33;;
4646;SDS011;2336;47.822;7.564;2022-12-29T07:29:31;2.30;;;1.87;;
4646;SDS011;2336;47.822;7.564;2022-12-29T07:32:00;2.00;;;1.80;;
4646;SDS011;2336;47.822;7.564;2022-12-29T07:34:26;1.67;;;1.57;;
4646;SDS011;2336;47.822;7.564;2022-12-29T07:36:53;1.83;;;1.37;;
4646;SDS011;2336;47.822;7.564;2022-12-29T07:39:20;2.10;;;1.57;;
4646;SDS011;2336;47.822;7.564;2022-12-29T07:41:47;1.93;;;1.80;;
4646;SDS011;2336;47.822;7.564;2022-12-29T07:44:14;1.43;;;1.43;;
4646;SDS011;2336;47.822;7.564;2022-12-29T07:46:40;3.40;;;3.20;;
4646;SDS011;2336;47.822;7.564;2022-12-29T07:49:09;1.73;;;1.53;;
4646;SDS011;2336;47.822;7.564;2022-12-29T07:51:35;1.33;;;1.27;;
4646;SDS011;2336;47.822;7.564;2022-12-29T07:54:02;1.37;;;1.10;;
4646;SDS011;2336;47.822;7.564;2022-12-29T07:56:29;2.57;;;1.50;;
4646;SDS011;2336;47.822;7.564;2022-12-29T07:58:56;1.10;;;1.10;;
4646;SDS011;2336;47.822;7.564;2022-12-29T08:01:23;1.20;;;1.03;;
4646;SDS011;2336;47.822;7.564;2022-12-29T08:03:49;1.87;;;1.77;;
4646;SDS011;2336;47.822;7.564;2022-12-29T08:06:18;1.63;;;1.50;;
4646;SDS011;2336;47.822;7.564;2022-12-29T08:08:45;1.67;;;1.50;;
4646;SDS011;2336;47.822;7.564;2022-12-29T08:11:12;1.30;;;1.20;;
4646;SDS011;2336;47.822;7.564;2022-12-29T08:13:38;1.10;;;1.00;;
4646;SDS011;2336;47.822;7.564;2022-12-29T08:16:05;1.90;;;1.23;;
4646;SDS011;2336;47.822;7.564;2022-12-29T08:18:32;1.33;;;1.03;;
4646;SDS011;2336;47.822;7.564;2022-12-29T08:21:01;0.97;;;0.97;;
4646;SDS011;2336;47.822;7.564;2022-12-29T08:23:30;0.97;;;0.90;;
4646;SDS011;2336;47.822;7.564;2022-12-29T08:25:57;2.93;;;1.03;;
4646;SDS011;2336;47.822;7.564;2022-12-29T08:28:24;1.10;;;1.00;;
4646;SDS011;2336;47.822;7.564;2022-12-29T08:30:51;3.10;;;1.00;;
4646;SDS011;2336;47.822;7.564;2022-12-29T08:33:18;1.17;;;1.17;;
4646;SDS011;2336;47.822;7.564;2022-12-29T08:35:45;1.93;;;1.63;;
4646;SDS011;2336;47.822;7.564;2022-12-29T08:38:12;1.20;;;1.20;;
4646;SDS011;2336;47.822;7.564;2022-12-29T08:40:40;1.90;;;1.20;;
4646;SDS011;2336;47.822;7.564;2022-12-29T08:43:07;1.97;;;1.87;;
4646;SDS011;2336;47.822;7.564;2022-12-29T08:45:34;1.60;;;1.10;;
4646;SDS011;2336;47.822;7.564;2022-12-29T08:48:00;1.10;;;1.10;;
4646;SDS011;2336;47.822;7.564;2022-12-29T08:50:27;2.00;;;1.87;;
4646;SDS011;2336;47.822;7.564;2022-12-29T08:52:54;2.90;;;1.40;;
4646;SDS011;2336;47.822;7.564;2022-12-29T08:55:21;1.20;;;1.10;;
4646;SDS011;2336;47.822;7.564;2022-12-29T08:57:49;1.67;;;1.57;;
4646;SDS011;2336;47.822;7.564;2022-12-29T09:00:17;1.67;;;1.57;;
4646;SDS011;2336;47.822;7.564;2022-12-29T09:02:45;1.50;;;1.40;;
4646;SDS011;2336;47.822;7.564;2022-12-29T09:05:12;1.37;;;1.27;;
4646;SDS011;2336;47.822;7.564;2022-12-29T09:07:39;2.03;;;1.43;;
4646;SDS011;2336;47.822;7.564;2022-12-29T09:10:06;1.83;;;1.40;;
4646;SDS011;2336;47.822;7.564;2022-12-29T09:12:33;2.73;;;1.13;;
4646;SDS011;2336;47.822;7.564;2022-12-29T09:15:01;1.73;;;1.63;;
4646;SDS011;2336;47.822;7.564;2022-12-29T09:17:28;1.33;;;1.33;;
4646;SDS011;2336;47.822;7.564;2022-12-29T09:20:07;1.77;;;1.60;;
4646;SDS011;2336;47.822;7.564;2022-12-29T09:22:35;3.53;;;2.63;;
4646;SDS011;2336;47.822;7.564;2022-12-29T09:25:02;1.90;;;1.80;;
4646;SDS011;2336;47.822;7.564;2022-12-29T09:27:29;2.50;;;1.97;;
4646;SDS011;2336;47.822;7.564;2022-12-29T09:29:56;3.63;;;1.77;;
4646;SDS011;2336;47.822;7.564;2022-12-29T09:32:24;1.70;;;1.60;;
4646;SDS011;2336;47.822;7.564;2022-12-29T09:34:50;1.47;;;1.37;;
4646;SDS011;2336;47.822;7.564;2022-12-29T09:37:17;1.53;;;1.43;;
4646;SDS011;2336;47.822;7.564;2022-12-29T09:39:44;4.03;;;1.83;;
4646;SDS011;2336;47.822;7.564;2022-12-29T09:42:12;2.87;;;1.53;;
4646;SDS011;2336;47.822;7.564;2022-12-29T09:44:46;4.30;;;1.67;;
4646;SDS011;2336;47.822;7.564;2022-12-29T09:47:23;1.63;;;1.53;;
4646;SDS011;2336;47.822;7.564;2022-12-29T09:49:52;2.87;;;2.50;;
4646;SDS011;2336;47.822;7.564;2022-12-29T09:52:22;2.20;;;1.73;;
4646;SDS011;2336;47.822;7.564;2022-12-29T09:54:55;1.87;;;1.77;;
4646;SDS011;2336;47.822;7.564;2022-12-29T09:57:24;2.60;;;1.73;;
4646;SDS011;2336;47.822;7.564;2022-12-29T09:59:55;1.93;;;1.83;;
4646;SDS011;2336;47.822;7.564;2022-12-29T10:02:31;7.00;;;3.97;;
4646;SDS011;2336;47.822;7.564;2022-12-29T10:05:02;1.90;;;1.80;;
4646;SDS011;2336;47.822;7.564;2022-12-29T10:07:32;1.43;;;1.33;;
4646;SDS011;2336;47.822;7.564;2022-12-29T10:10:18;1.33;;;1.33;;
4646;SDS011;2336;47.822;7.564;2022-12-29T10:12:56;1.73;;;1.63;;
4646;SDS011;2336;47.822;7.564;2022-12-29T10:15:31;2.30;;;2.10;;
4646;SDS011;2336;47.822;7.564;2022-12-29T10:18:12;7.67;;;2.07;;
4646;SDS011;2336;47.822;7.564;2022-12-29T10:20:52;1.30;;;1.30;;
4646;SDS011;2336;47.822;7.564;2022-12-29T10:23:25;1.80;;;1.40;;
4646;SDS011;2336;47.822;7.564;2022-12-29T10:25:55;1.60;;;1.50;;
4646;SDS011;2336;47.822;7.564;2022-12-29T10:28:24;1.63;;;1.53;;
4646;SDS011;2336;47.822;7.564;2022-12-29T10:30:59;2.40;;;1.70;;
4646;SDS011;2336;47.822;7.564;2022-12-29T10:33:32;3.03;;;1.70;;
4646;SDS011;2336;47.822;7.564;2022-12-29T10:36:02;1.47;;;1.37;;
4646;SDS011;2336;47.822;7.564;2022-12-29T10:38:43;1.73;;;1.63;;
4646;SDS011;2336;47.822;7.564;2022-12-29T10:41:15;1.53;;;1.43;;
4646;SDS011;2336;47.822;7.564;2022-12-29T10:43:47;2.37;;;1.47;;
4646;SDS011;2336;47.822;7.564;2022-12-29T10:46:17;2.77;;;1.50;;
4646;SDS011;2336;47.822;7.564;2022-12-29T10:48:48;1.77;;;1.67;;
4646;SDS011;2336;47.822;7.564;2022-12-29T10:51:17;1.27;;;1.13;;
4646;SDS011;2336;47.822;7.564;2022-12-29T10:53:47;2.60;;;1.40;;
4646;SDS011;2336;47.822;7.564;2022-12-29T10:56:20;2.13;;;1.33;;
4646;SDS011;2336;47.822;7.564;2022-12-29T10:58:54;1.23;;;1.13;;
4646;SDS011;2336;47.822;7.564;2022-12-29T11:01:23;1.20;;;1.00;;
4646;SDS011;2336;47.822;7.564;2022-12-29T11:04:00;2.03;;;1.90;;
4646;SDS011;2336;47.822;7.564;2022-12-29T11:06:30;1.73;;;1.47;;
4646;SDS011;2336;47.822;7.564;2022-12-29T11:08:57;1.00;;;1.00;;
4646;SDS011;2336;47.822;7.564;2022-12-29T11:11:32;1.50;;;1.43;;
4646;SDS011;2336;47.822;7.564;2022-12-29T11:14:02;1.47;;;1.37;;
4646;SDS011;2336;47.822;7.564;2022-12-29T11:16:36;2.00;;;1.20;;
4646;SDS011;2336;47.822;7.564;2022-12-29T11:19:04;2.90;;;1.33;;
4646;SDS011;2336;47.822;7.564;2022-12-29T11:21:32;1.90;;;1.50;;
4646;SDS011;2336;47.822;7.564;2022-12-29T11:24:08;1.23;;;1.13;;
4646;SDS011;2336;47.822;7.564;2022-12-29T11:26:46;1.40;;;1.30;;
4646;SDS011;2336;47.822;7.564;2022-12-29T11:29:17;0.90;;;0.90;;
4646;SDS011;2336;47.822;7.564;2022-12-29T11:31:48;1.70;;;1.60;;
4646;SDS011;2336;47.822;7.564;2022-12-29T11:34:19;2.33;;;1.53;;
4646;SDS011;2336;47.822;7.564;2022-12-29T11:36:48;1.20;;;1.10;;
4646;SDS011;2336;47.822;7.564;2022-12-29T11:39:23;2.33;;;1.10;;
4646;SDS011;2336;47.822;7.564;2022-12-29T11:41:56;2.50;;;1.67;;
4646;SDS011;2336;47.822;7.564;2022-12-29T11:44:24;1.73;;;1.23;;
4646;SDS011;2336;47.822;7.564;2022-12-29T11:46:52;1.10;;;1.10;;
4646;SDS011;2336;47.822;7.564;2022-12-29T11:49:21;1.00;;;1.00;;
4646;SDS011;2336;47.822;7.564;2022-12-29T11:51:51;0.80;;;0.80;;
4646;SDS011;2336;47.822;7.564;2022-12-29T11:54:22;1.63;;;1.20;;
4646;SDS011;2336;47.822;7.564;2022-12-29T11:56:51;1.13;;;1.00;;
4646;SDS011;2336;47.822;7.564;2022-12-29T12:02:14;4.53;;;1.10;;
4646;SDS011;2336;47.822;7.564;2022-12-29T12:04:53;4.60;;;1.20;;
4646;SDS011;2336;47.822;7.564;2022-12-29T12:07:28;1.43;;;1.33;;
4646;SDS011;2336;47.822;7.564;2022-12-29T12:10:04;1.10;;;1.10;;
4646;SDS011;2336;47.822;7.564;2022-12-29T12:12:38;1.30;;;1.30;;
4646;SDS011;2336;47.822;7.564;2022-12-29T12:15:12;1.30;;;1.30;;
4646;SDS011;2336;47.822;7.564;2022-12-29T12:17:45;0.97;;;0.97;;
4646;SDS011;2336;47.822;7.564;2022-12-29T12:20:18;2.40;;;1.37;;
4646;SDS011;2336;47.822;7.564;2022-12-29T12:22:50;1.37;;;1.10;;
4646;SDS011;2336;47.822;7.564;2022-12-29T12:25:25;1.60;;;1.53;;
4646;SDS011;2336;47.822;7.564;2022-12-29T12:27:57;2.30;;;1.47;;
4646;SDS011;2336;47.822;7.564;2022-12-29T12:30:29;3.57;;;1.30;;
4646;SDS011;2336;47.822;7.564;2022-12-29T12:33:03;1.67;;;1.57;;
4646;SDS011;2336;47.822;7.564;2022-12-29T12:35:36;1.53;;;1.43;;
4646;SDS011;2336;47.822;7.564;2022-12-29T12:38:13;1.27;;;1.20;;
4646;SDS011;2336;47.822;7.564;2022-12-29T12:40:51;1.07;;;1.07;;
4646;SDS011;2336;47.822;7.564;2022-12-29T12:43:34;1.40;;;1.40;;
4646;SDS011;2336;47.822;7.564;2022-12-29T12:46:24;2.30;;;1.47;;
4646;SDS011;2336;47.822;7.564;2022-12-29T12:52:36;1.50;;;1.50;;
4646;SDS011;2336;47.822;7.564;2022-12-29T12:55:22;2.50;;;1.47;;
4646;SDS011;2336;47.822;7.564;2022-12-29T12:58:00;1.47;;;1.40;;
4646;SDS011;2336;47.822;7.564;2022-12-29T13:00:37;3.60;;;3.30;;
4646;SDS011;2336;47.822;7.564;2022-12-29T13:03:13;3.27;;;2.00;;
4646;SDS011;2336;47.822;7.564;2022-12-29T13:05:57;3.90;;;3.70;;
4646;SDS011;2336;47.822;7.564;2022-12-29T13:11:37;1.43;;;1.33;;
4646;SDS011;2336;47.822;7.564;2022-12-29T13:14:22;2.93;;;1.50;;
4646;SDS011;2336;47.822;7.564;2022-12-29T13:17:00;1.53;;;1.27;;
4646;SDS011;2336;47.822;7.564;2022-12-29T13:19:34;1.77;;;1.63;;
4646;SDS011;2336;47.822;7.564;2022-12-29T13:22:08;1.80;;;1.63;;
4646;SDS011;2336;47.822;7.564;2022-12-29T13:24:50;2.23;;;1.30;;
4646;SDS011;2336;47.822;7.564;2022-12-29T13:27:39;2.73;;;2.00;;
4646;SDS011;2336;47.822;7.564;2022-12-29T13:30:26;1.50;;;1.40;;
4646;SDS011;2336;47.822;7.564;2022-12-29T13:33:00;1.60;;;1.60;;
4646;SDS011;2336;47.822;7.564;2022-12-29T13:35:41;1.70;;;1.60;;
4646;SDS011;2336;47.822;7.564;2022-12-29T13:38:19;3.20;;;1.90;;
4646;SDS011;2336;47.822;7.564;2022-12-29T13:40:51;3.13;;;1.70;;
4646;SDS011;2336;47.822;7.564;2022-12-29T13:43:21;1.90;;;1.80;;
4646;SDS011;2336;47.822;7.564;2022-12-29T13:45:57;1.70;;;1.60;;
4646;SDS011;2336;47.822;7.564;2022-12-29T13:48:29;2.30;;;2.17;;
4646;SDS011;2336;47.822;7.564;2022-12-29T13:51:03;2.97;;;2.30;;
4646;SDS011;2336;47.822;7.564;2022-12-29T13:53:33;2.13;;;1.63;;
4646;SDS011;2336;47.822;7.564;2022-12-29T13:56:12;2.10;;;1.97;;
4646;SDS011;2336;47.822;7.564;2022-12-29T13:58:47;2.90;;;1.77;;
4646;SDS011;2336;47.822;7.564;2022-12-29T14:01:20;2.40;;;2.00;;
4646;SDS011;2336;47.822;7.564;2022-12-29T14:03:52;3.17;;;1.90;;
4646;SDS011;2336;47.822;7.564;2022-12-29T14:06:22;2.40;;;2.13;;
4646;SDS011;2336;47.822;7.564;2022-12-29T14:08:51;3.87;;;3.03;;
4646;SDS011;2336;47.822;7.564;2022-12-29T14:11:22;3.30;;;3.10;;
4646;SDS011;2336;47.822;7.564;2022-12-29T14:13:54;2.93;;;2.70;;
4646;SDS011;2336;47.822;7.564;2022-12-29T14:16:25;3.07;;;2.77;;
4646;SDS011;2336;47.822;7.564;2022-12-29T14:19:03;6.77;;;2.37;;
4646;SDS011;2336;47.822;7.564;2022-12-29T14:21:32;2.40;;;2.20;;
4646;SDS011;2336;47.822;7.564;2022-12-29T14:33:16;2.10;;;1.90;;
4646;SDS011;2336;47.822;7.564;2022-12-29T14:35:45;3.03;;;1.83;;
4646;SDS011;2336;47.822;7.564;2022-12-29T14:38:25;1.97;;;1.90;;
4646;SDS011;2336;47.822;7.564;2022-12-29T14:43:59;2.73;;;1.90;;
4646;SDS011;2336;47.822;7.564;2022-12-29T14:46:43;2.20;;;2.10;;
4646;SDS011;2336;47.822;7.564;2022-12-29T14:49:14;1.63;;;1.53;;
4646;SDS011;2336;47.822;7.564;2022-12-29T14:51:45;1.90;;;1.80;;
4646;SDS011;2336;47.822;7.564;2022-12-29T14:57:13;5.27;;;1.67;;
4646;SDS011;2336;47.822;7.564;2022-12-29T14:59:53;1.83;;;1.73;;
4646;SDS011;2336;47.822;7.564;2022-12-29T15:02:26;5.67;;;2.77;;
4646;SDS011;2336;47.822;7.564;2022-12-29T15:04:59;1.60;;;1.50;;
4646;SDS011;2336;47.822;7.564;2022-12-29T15:07:28;2.40;;;2.00;;
4646;SDS011;2336;47.822;7.564;2022-12-29T15:09:56;6.77;;;1.90;;
4646;SDS011;2336;47.822;7.564;2022-12-29T15:12:30;2.30;;;2.10;;
4646;SDS011;2336;47.822;7.564;2022-12-29T15:15:13;3.07;;;2.77;;
4646;SDS011;2336;47.822;7.564;2022-12-29T15:17:46;2.97;;;2.77;;
4646;SDS011;2336;47.822;7.564;2022-12-29T15:20:17;5.00;;;2.70;;
4646;SDS011;2336;47.822;7.564;2022-12-29T15:22:48;2.03;;;1.73;;
4646;SDS011;2336;47.822;7.564;2022-12-29T15:25:18;3.20;;;2.40;;
4646;SDS011;2336;47.822;7.564;2022-12-29T15:27:48;5.13;;;2.33;;
4646;SDS011;2336;47.822;7.564;2022-12-29T15:30:16;1.73;;;1.50;;
4646;SDS011;2336;47.822;7.564;2022-12-29T15:32:43;2.70;;;2.47;;
4646;SDS011;2336;47.822;7.564;2022-12-29T15:35:22;2.50;;;2.30;;
4646;SDS011;2336;47.822;7.564;2022-12-29T15:37:51;2.30;;;1.90;;
4646;SDS011;2336;47.822;7.564;2022-12-29T15:40:21;3.53;;;2.90;;
4646;SDS011;2336;47.822;7.564;2022-12-29T15:42:52;6.20;;;4.10;;
4646;SDS011;2336;47.822;7.564;2022-12-29T15:45:32;4.73;;;4.23;;
4646;SDS011;2336;47.822;7.564;2022-12-29T15:48:01;5.20;;;4.10;;
4646;SDS011;2336;47.822;7.564;2022-12-29T15:50:30;8.10;;;6.13;;
4646;SDS011;2336;47.822;7.564;2022-12-29T15:52:58;4.50;;;4.10;;
4646;SDS011;2336;47.822;7.564;2022-12-29T15:55:28;8.37;;;7.67;;
4646;SDS011;2336;47.822;7.564;2022-12-29T15:57:58;5.37;;;4.83;;
4646;SDS011;2336;47.822;7.564;2022-12-29T16:00:27;10.70;;;8.30;;
4646;SDS011;2336;47.822;7.564;2022-12-29T16:02:56;15.03;;;11.97;;
4646;SDS011;2336;47.822;7.564;2022-12-29T16:05:32;17.83;;;11.97;;